Time;durP1;ratioP1;P1;durP2;ratioP2;P2;SDS_P1;SDS_P2;PMS_P1;PMS_P2;Temp;Humidity;BMP_temperature;BMP_pressure;BME280_temperature;BME280_humidity;BME280_pressure;Samples;Min_cycle;Max_cycle;Signal;HPM_P1;HPM_P2
2021/04/16 00:01:21;;;;;;;6.80;3.75;;;6.00;99.90;;;5.65;71.79;102399.81;4167797;28;20021;-68
2021/04/16 00:03:23;;;;;;;6.95;4.13;;;5.90;99.90;;;5.59;71.25;102382.66;4184196;28;20261;-68
2021/04/16 00:05:25;;;;;;;4.13;3.45;;;5.90;99.90;;;5.69;70.56;102383.88;4167950;28;20041;-68
2021/04/16 00:07:26;;;;;;;7.95;4.15;;;5.90;99.90;;;5.66;71.35;102380.56;4167616;28;20071;-68
2021/04/16 00:09:28;;;;;;;6.88;3.85;;;5.90;99.90;;;5.63;72.00;102401.69;4184040;28;20036;-68
2021/04/16 00:11:30;;;;;;;5.88;3.65;;;5.80;99.90;;;5.53;72.32;102394.31;4163763;28;20030;-68
2021/04/16 00:13:31;;;;;;;4.82;3.65;;;5.80;99.90;;;5.41;71.99;102387.13;4167564;28;20032;-68
2021/04/16 00:15:37;;;;;;;6.75;3.90;;;5.70;99.90;;;5.37;72.51;102384.78;4156401;28;20037;-68
2021/04/16 00:17:38;;;;;;;5.38;3.75;;;5.70;99.90;;;5.32;72.11;102377.16;4151247;28;20064;-69
2021/04/16 00:19:39;;;;;;;6.55;3.72;;;5.60;99.90;;;5.34;71.87;102379.72;4168717;28;20018;-68
2021/04/16 00:21:41;;;;;;;7.28;3.63;;;5.60;99.90;;;5.32;72.21;102382.41;4168572;28;20428;-69
2021/04/16 00:23:42;;;;;;;6.20;3.25;;;5.60;99.90;;;5.37;71.65;102380.41;4167580;28;20029;-68
2021/04/16 00:25:43;;;;;;;3.83;3.28;;;5.50;99.90;;;5.34;72.21;102385.78;4167301;28;20029;-68
2021/04/16 00:27:44;;;;;;;5.13;3.40;;;5.50;99.90;;;5.30;72.79;102389.50;4183904;28;20511;-68
2021/04/16 00:29:45;;;;;;;5.43;3.30;;;5.50;99.90;;;5.23;73.01;102393.34;4167414;28;20072;-68
2021/04/16 00:31:53;;;;;;;5.28;3.42;;;5.40;99.90;;;5.11;73.37;102378.31;4183915;28;20095;-68
2021/04/16 00:33:55;;;;;;;4.90;3.20;;;5.50;99.90;;;5.13;72.95;102366.00;4151584;28;20076;-68
2021/04/16 00:35:56;;;;;;;7.75;4.57;;;5.40;99.90;;;5.19;73.17;102385.75;4150870;28;20101;-68
2021/04/16 00:37:57;;;;;;;6.50;3.28;;;5.40;99.90;;;5.15;73.45;102379.84;4166802;28;20029;-68
2021/04/16 00:39:58;;;;;;;6.80;3.20;;;5.30;99.90;;;5.00;73.74;102365.81;4150766;28;20320;-68
2021/04/16 00:41:59;;;;;;;7.65;3.67;;;5.30;99.90;;;4.92;73.83;102369.75;4167351;28;20111;-68
2021/04/16 00:44:00;;;;;;;6.35;3.10;;;5.20;99.90;;;4.92;73.92;102368.00;4167292;28;20118;-68
2021/04/16 00:46:13;;;;;;;5.88;3.53;;;5.20;99.90;;;5.02;74.57;102376.16;4168325;28;20489;-68
2021/04/16 00:48:35;;;;;;;5.15;3.28;;;5.20;99.90;;;4.92;74.55;102356.69;4168522;28;20026;-68
2021/04/16 00:50:58;;;;;;;5.28;3.45;;;5.20;99.90;;;4.96;73.93;102366.88;4151042;28;20053;-68
2021/04/16 00:53:01;;;;;;;5.57;4.30;;;5.10;99.90;;;5.02;73.36;102365.72;4167578;28;20056;-68
2021/04/16 00:55:04;;;;;;;6.68;3.25;;;5.20;99.90;;;5.02;73.58;102352.63;4167000;28;20528;-68
2021/04/16 00:57:09;;;;;;;4.82;3.70;;;5.20;99.90;;;4.96;73.78;102358.19;4167174;28;20112;-68
2021/04/16 00:59:11;;;;;;;6.18;3.30;;;5.10;99.90;;;4.86;74.24;102349.16;4167242;28;20029;-68
2021/04/16 01:01:12;;;;;;;6.03;3.67;;;5.10;99.90;;;4.80;74.57;102352.94;4167200;28;20111;-68
2021/04/16 01:03:13;;;;;;;5.32;3.53;;;5.10;99.90;;;4.89;74.63;102352.47;4167151;28;20427;-68
2021/04/16 01:05:15;;;;;;;6.82;3.40;;;5.10;99.90;;;4.88;74.27;102342.06;4183569;28;20112;-68
2021/04/16 01:07:18;;;;;;;5.85;3.78;;;5.10;99.90;;;4.86;74.72;102350.00;4167000;28;20116;-68
2021/04/16 01:09:20;;;;;;;6.68;4.07;;;5.10;99.90;;;4.69;75.66;102350.00;4167087;28;20032;-68
2021/04/16 01:11:21;;;;;;;6.95;3.40;;;5.00;99.90;;;4.65;75.82;102338.03;4166932;28;20108;-68
2021/04/16 01:13:24;;;;;;;5.25;4.00;;;5.00;99.90;;;4.65;75.66;102355.50;4167026;28;20064;-68
2021/04/16 01:15:34;;;;;;;6.95;3.50;;;4.90;99.90;;;4.40;76.08;102317.53;4150656;28;20026;-68
2021/04/16 01:17:35;;;;;;;5.40;3.90;;;4.90;99.90;;;4.25;76.47;102320.94;4167075;28;20112;-68
2021/04/16 01:19:56;;;;;;;6.47;3.47;;;4.80;99.90;;;4.30;76.12;102339.81;4166878;28;20385;-68
2021/04/16 01:22:17;;;;;;;3.88;3.25;;;4.70;99.90;;;4.09;77.63;102348.72;4167270;28;20021;-68
2021/04/16 01:24:25;;;;;;;5.15;3.47;;;4.50;99.90;;;4.38;77.52;102353.34;4167557;28;20434;-68
2021/04/16 01:26:32;;;;;;;7.95;3.58;;;4.60;99.90;;;4.34;76.91;102341.38;4167832;28;20083;-68
2021/04/16 01:28:34;;;;;;;5.82;3.53;;;4.60;99.90;;;4.29;77.41;102338.16;4167141;28;20033;-67
2021/04/16 01:30:35;;;;;;;7.20;4.35;;;4.60;99.90;;;4.30;77.62;102347.66;4166913;28;20033;-68
2021/04/16 01:32:37;;;;;;;5.50;3.47;;;4.60;99.90;;;4.17;77.73;102343.97;4166701;28;20124;-68
2021/04/16 01:34:39;;;;;;;8.18;3.80;;;4.50;99.90;;;4.30;77.16;102347.66;4166643;28;20115;-68
2021/04/16 01:36:40;;;;;;;8.82;4.65;;;4.50;99.90;;;4.31;77.28;102348.50;4166953;28;20022;-67
2021/04/16 01:38:44;;;;;;;7.90;3.40;;;4.60;99.90;;;4.42;77.49;102344.44;4166796;28;20026;-68
2021/04/16 01:40:45;;;;;;;5.57;3.67;;;4.60;99.90;;;4.36;77.73;102342.13;4166715;28;20022;-68
2021/04/16 01:42:46;;;;;;;6.97;3.80;;;4.60;99.90;;;4.34;77.75;102333.53;4167954;28;20088;-68
2021/04/16 01:44:47;;;;;;;5.88;4.07;;;4.60;99.90;;;4.42;77.59;102341.81;4168025;28;20029;-68
2021/04/16 01:46:59;;;;;;;4.93;3.17;;;4.60;99.90;;;4.24;77.66;102331.47;4183244;28;20621;-68
2021/04/16 01:49:00;;;;;;;5.63;3.47;;;4.50;99.90;;;4.30;78.28;102345.03;4169349;28;20033;-68
2021/04/16 01:51:01;;;;;;;5.88;3.75;;;4.50;99.90;;;4.08;78.49;102335.75;4170158;28;20030;-68
2021/04/16 01:53:03;;;;;;;12.52;4.45;;;4.50;99.90;;;4.24;78.02;102337.50;4171155;28;20117;-68
2021/04/16 01:55:05;;;;;;;8.05;4.45;;;4.50;99.90;;;3.98;78.73;102317.06;4169733;28;20030;-68
2021/04/16 01:57:21;;;;;;;6.85;3.78;;;4.40;99.90;;;4.00;79.21;102320.47;4169740;28;20127;-68
2021/04/16 01:59:29;;;;;;;4.05;3.58;;;4.40;99.90;;;4.09;78.99;102335.66;4169909;28;20017;-68
2021/04/16 02:01:30;;;;;;;6.65;4.20;;;4.30;99.90;;;3.90;79.53;102316.59;4169728;28;20029;-68
2021/04/16 02:03:32;;;;;;;9.43;3.80;;;4.30;99.90;;;4.06;78.92;102320.13;4170837;28;20394;-68
2021/04/16 02:05:33;;;;;;;5.25;3.53;;;4.30;99.90;;;3.85;78.51;102292.50;4169570;28;20045;-68
2021/04/16 02:07:34;;;;;;;7.88;3.90;;;4.30;99.90;;;4.00;78.70;102338.75;4159050;28;20512;-68
2021/04/16 02:09:37;;;;;;;6.40;3.33;;;4.30;99.90;;;3.95;80.11;102338.09;4152811;28;20026;-68
2021/04/16 02:11:40;;;;;;;6.28;3.88;;;4.30;99.90;;;4.08;79.34;102338.34;4153030;28;20030;-68
2021/04/16 02:13:42;;;;;;;7.03;3.58;;;4.30;99.90;;;4.02;79.35;102329.06;4169128;28;20033;-68
2021/04/16 02:15:42;;;;;;;5.60;3.33;;;4.30;99.90;;;4.00;79.85;102328.31;4152933;28;20532;-68
2021/04/16 02:17:44;;;;;;;8.13;3.45;;;4.30;99.90;;;3.95;78.82;102316.38;4179168;28;20028;-68
2021/04/16 02:19:45;;;;;;;4.53;3.22;;;4.30;99.90;;;4.03;77.63;102311.63;4169490;28;20100;-68
2021/04/16 02:21:47;;;;;;;5.50;3.83;;;4.30;99.90;;;4.16;79.16;102338.81;4168877;28;20029;-68
2021/04/16 02:23:47;;;;;;;5.53;3.65;;;4.30;99.90;;;4.15;78.27;102318.88;4160147;28;20033;-68
2021/04/16 02:25:48;;;;;;;5.13;3.25;;;4.30;99.90;;;3.99;79.44;102329.22;4169281;28;20029;-68
2021/04/16 02:27:50;;;;;;;5.05;3.60;;;4.30;99.90;;;4.02;78.58;102325.59;4181738;28;20040;-68
2021/04/16 02:29:51;;;;;;;7.88;3.65;;;4.30;99.90;;;4.07;78.64;102332.28;4169214;28;20033;-68
2021/04/16 02:31:52;;;;;;;5.88;3.72;;;4.40;99.90;;;4.09;79.24;102332.22;4158782;28;20040;-68
2021/04/16 02:33:53;;;;;;;4.60;3.40;;;4.30;99.90;;;4.07;78.20;102336.66;4152833;28;20042;-68
2021/04/16 02:35:54;;;;;;;6.28;3.80;;;4.20;99.90;;;4.12;78.62;102348.56;4169057;28;20112;-68
2021/04/16 02:37:56;;;;;;;7.07;3.72;;;4.30;99.90;;;4.01;78.82;102322.16;4169061;28;20034;-68
2021/04/16 02:39:57;;;;;;;4.22;3.63;;;4.40;99.90;;;3.90;79.19;102316.59;4168913;28;20029;-68
2021/04/16 02:41:57;;;;;;;6.50;3.10;;;4.20;99.90;;;3.82;80.03;102334.41;4169132;28;20041;-68
2021/04/16 02:43:59;;;;;;;7.95;3.60;;;4.20;99.90;;;3.79;79.52;102324.13;4169175;28;20028;-68
2021/04/16 02:46:00;;;;;;;9.68;3.85;;;4.10;99.90;;;3.86;78.75;102325.50;4168951;28;20029;-68
2021/04/16 02:48:01;;;;;;;7.45;3.60;;;4.10;99.90;;;3.79;79.25;102324.94;4169306;28;20025;-68
2021/04/16 02:50:06;;;;;;;8.27;4.90;;;4.10;99.90;;;3.91;79.27;102323.53;4169088;28;20033;-68
2021/04/16 02:52:07;;;;;;;10.98;4.43;;;4.20;99.90;;;3.89;79.54;102320.13;4169014;28;20029;-68
2021/04/16 02:54:09;;;;;;;4.20;3.47;;;4.20;99.90;;;3.85;79.64;102302.94;4170048;28;20036;-68
2021/04/16 02:56:10;;;;;;;9.43;4.15;;;4.20;99.90;;;3.89;79.14;102309.69;4168798;28;20061;-68
2021/04/16 02:58:12;;;;;;;5.72;3.70;;;4.30;99.90;;;3.89;78.99;102307.06;4169022;28;20421;-68
2021/04/16 03:00:25;;;;;;;6.82;3.65;;;4.30;99.90;;;3.80;79.05;102310.97;4184647;28;20103;-68
2021/04/16 03:02:27;;;;;;;7.15;4.80;;;4.20;99.90;;;3.78;79.83;102301.53;4139987;28;20022;-67
2021/04/16 03:04:28;;;;;;;10.63;4.38;;;4.10;99.90;;;4.02;78.58;102316.00;4170074;28;20032;-68
2021/04/16 03:06:29;;;;;;;8.52;4.03;;;4.20;99.90;;;3.95;78.96;102322.44;4170074;28;20108;-68
2021/04/16 03:08:30;;;;;;;7.50;4.32;;;4.20;99.90;;;3.90;78.83;102316.59;4169808;28;20088;-68
2021/04/16 03:10:34;;;;;;;10.30;3.83;;;4.20;99.90;;;3.85;78.83;102314.22;4168469;28;20040;-68
2021/04/16 03:12:35;;;;;;;;;;;4.20;99.90;;;3.70;79.37;102288.84;4169260;28;20413;-68
2021/04/16 03:14:36;;;;;;;8.43;4.13;;;4.20;99.90;;;3.82;79.12;102308.31;4169862;28;19913;-68
2021/04/16 03:16:37;;;;;;;6.63;3.63;;;4.20;99.90;;;3.76;78.92;102304.22;4169768;28;20052;-68
2021/04/16 03:18:38;;;;;;;9.80;4.60;;;4.20;99.90;;;3.86;79.50;102310.69;4168754;28;20021;-68
2021/04/16 03:20:39;;;;;;;9.70;4.32;;;4.20;99.90;;;3.65;79.87;102296.06;4169815;28;20029;-68
2021/04/16 03:22:40;;;;;;;7.05;4.70;;;4.20;99.90;;;3.76;79.44;102314.66;4169802;28;20026;-68
2021/04/16 03:24:42;;;;;;;6.82;3.95;;;4.10;99.90;;;3.60;79.05;102312.88;4151746;28;20029;-68
2021/04/16 03:26:43;;;;;;;7.13;3.67;;;4.10;99.90;;;3.61;79.28;102304.97;4168606;28;20033;-68
2021/04/16 03:28:44;;;;;;;5.60;3.67;;;4.00;99.90;;;3.71;80.56;102321.88;4169670;28;20087;-68
2021/04/16 03:30:45;;;;;;;7.88;4.20;;;4.00;99.90;;;3.67;79.97;102319.50;4168377;28;20026;-68
2021/04/16 03:32:46;;;;;;;8.10;3.88;;;4.00;99.90;;;3.68;79.89;102313.34;4168097;28;20057;-68
2021/04/16 03:34:47;;;;;;;7.75;3.90;;;4.00;99.90;;;3.89;79.75;102330.56;4168531;28;20041;-68
2021/04/16 03:36:49;;;;;;;9.80;4.00;;;4.00;99.90;;;3.82;79.05;102314.34;4168294;28;20022;-68
2021/04/16 03:38:50;;;;;;;9.18;4.15;;;4.10;99.90;;;3.90;79.45;102311.38;4168360;28;20547;-68
2021/04/16 03:40:51;;;;;;;15.82;4.63;;;4.10;99.90;;;3.75;80.54;102306.91;4167911;28;20492;-68
2021/04/16 03:42:52;;;;;;;7.75;3.80;;;4.10;99.90;;;3.78;79.59;102306.75;4151905;28;20053;-68
2021/04/16 03:44:53;;;;;;;5.97;3.50;;;4.10;99.90;;;3.58;80.83;102301.66;4168432;28;20092;-68
2021/04/16 03:46:54;;;;;;;7.80;4.05;;;4.10;99.90;;;3.69;80.37;102313.28;4169371;28;20075;-68
2021/04/16 03:48:55;;;;;;;10.68;4.38;;;3.90;99.90;;;3.79;80.06;102314.50;4168031;28;20025;-68
2021/04/16 03:50:56;;;;;;;9.02;4.03;;;4.00;99.90;;;3.65;79.88;102303.03;4169316;28;20025;-68
2021/04/16 03:52:57;;;;;;;7.65;4.60;;;4.00;99.90;;;3.84;79.60;102322.13;4168013;28;20068;-68
2021/04/16 03:54:58;;;;;;;10.55;4.38;;;4.00;99.90;;;3.56;79.98;102290.44;4184202;28;20108;-68
2021/04/16 03:57:00;;;;;;;5.90;3.58;;;4.00;99.90;;;3.76;79.74;102314.66;4169156;28;20022;-68
2021/04/16 03:59:00;;;;;;;9.02;4.30;;;4.00;99.90;;;3.79;79.56;102314.50;4168085;28;20021;-68
2021/04/16 04:01:05;;;;;;;7.03;3.90;;;4.10;99.90;;;3.73;80.66;102313.97;4167729;28;20040;-68
2021/04/16 04:03:09;;;;;;;9.52;3.92;;;4.10;99.90;;;3.72;80.21;102326.19;4151620;28;20022;-68
2021/04/16 04:05:10;;;;;;;7.35;4.18;;;4.00;99.90;;;3.80;79.49;102323.19;4167794;28;20033;-68
2021/04/16 04:07:11;;;;;;;7.32;3.95;;;4.10;99.90;;;3.70;80.07;102314.13;4167642;28;20040;-68
2021/04/16 04:09:12;;;;;;;9.55;5.03;;;4.10;99.90;;;3.77;79.70;102323.34;4167389;28;20563;-68
2021/04/16 04:11:13;;;;;;;7.55;4.35;;;4.10;99.90;;;3.67;79.97;102322.94;4143406;28;20034;-68
2021/04/16 04:13:15;;;;;;;5.18;3.70;;;4.10;99.90;;;3.64;81.27;102324.84;4200467;28;20024;-68
2021/04/16 04:15:19;;;;;;;7.60;4.13;;;4.10;99.90;;;3.62;80.74;102319.69;4167415;28;20064;-68
2021/04/16 04:17:35;;;;;;;7.82;3.42;;;4.00;99.90;;;3.75;80.94;102322.56;4151582;28;20026;-68
2021/04/16 04:19:36;;;;;;;7.63;4.43;;;4.00;99.90;;;3.75;80.62;102317.34;4151253;28;20040;-68
2021/04/16 04:21:37;;;;;;;7.53;4.35;;;4.00;99.90;;;3.67;80.82;102314.28;4151322;28;20080;-68
2021/04/16 04:23:38;;;;;;;6.63;3.65;;;4.00;99.90;;;3.68;81.24;102324.63;4167540;28;20492;-68
2021/04/16 04:25:39;;;;;;;9.80;4.88;;;4.00;99.90;;;3.59;81.03;102316.38;4150930;28;20022;-68
2021/04/16 04:27:39;;;;;;;6.82;4.22;;;3.90;99.90;;;3.48;80.78;102284.75;4167491;28;20120;-68
2021/04/16 04:29:41;;;;;;;8.18;4.13;;;3.90;99.90;;;3.65;79.92;102316.09;4151059;28;20025;-68
2021/04/16 04:31:48;;;;;;;9.30;4.25;;;3.90;99.90;;;3.74;79.77;102320.88;4167608;28;20033;-68
2021/04/16 04:33:49;;;;;;;9.45;4.95;;;3.90;99.90;;;3.79;79.49;102318.91;4167521;28;20045;-68
2021/04/16 04:35:51;;;;;;;7.28;4.18;;;4.00;99.90;;;3.54;80.81;102307.94;4168619;28;20036;-68
2021/04/16 04:37:53;;;;;;;13.23;4.78;;;4.00;99.90;;;3.60;79.86;102307.66;4168620;28;20029;-68
2021/04/16 04:39:54;;;;;;;5.97;4.10;;;4.00;99.90;;;3.63;80.79;102315.31;4168533;28;20397;-68
2021/04/16 04:41:55;;;;;;;8.48;4.45;;;4.00;99.90;;;3.65;80.81;102316.09;4151055;28;20053;-68
2021/04/16 04:43:56;;;;;;;8.93;4.78;;;4.00;99.90;;;3.61;81.23;102325.00;4167360;28;20033;-68
2021/04/16 04:45:57;;;;;;;9.82;4.50;;;3.90;99.90;;;3.56;80.98;102317.38;4167244;28;20536;-68
2021/04/16 04:47:59;;;;;;;9.50;5.05;;;4.00;99.90;;;3.67;80.72;102309.06;4168667;28;20392;-68
2021/04/16 04:50:00;;;;;;;12.63;4.20;;;3.90;99.90;;;3.71;80.37;102315.78;4167355;28;20468;-68
2021/04/16 04:52:31;;;;;;;7.32;4.22;;;4.00;99.90;;;3.75;80.44;102328.66;4168535;28;20037;-68
2021/04/16 04:54:32;;;;;;;7.80;4.18;;;4.00;99.90;;;3.64;81.35;102317.88;4166997;28;20037;-68
2021/04/16 04:56:33;;;;;;;11.07;4.70;;;4.00;99.90;;;3.51;80.92;102305.47;4150870;28;20029;-68
2021/04/16 04:58:34;;;;;;;9.20;4.60;;;3.90;99.90;;;3.63;81.01;102331.84;4167353;28;20484;-68
2021/04/16 05:00:35;;;;;;;8.10;4.47;;;3.90;99.90;;;3.49;81.57;102317.75;4150610;28;20026;-68
2021/04/16 05:02:37;;;;;;;8.77;3.83;;;3.90;99.90;;;3.65;80.87;102336.97;4155986;28;20163;-68
2021/04/16 05:04:38;;;;;;;11.40;4.57;;;3.80;99.90;;;3.57;81.33;102336.50;4183783;28;20021;-68
2021/04/16 05:06:39;;;;;;;8.07;4.32;;;3.80;99.90;;;3.52;81.60;102309.78;4167290;28;20078;-68
2021/04/16 05:08:40;;;;;;;8.80;4.30;;;3.90;99.90;;;3.43;81.81;102315.44;4183433;28;20499;-68
2021/04/16 05:10:41;;;;;;;7.30;4.20;;;3.90;99.90;;;3.45;81.79;102313.59;4155099;28;20120;-68
2021/04/16 05:12:42;;;;;;;10.07;5.88;;;3.90;99.90;;;3.64;81.43;102333.53;4167094;28;20083;-68
2021/04/16 05:14:43;;;;;;;7.78;4.85;;;3.80;99.90;;;3.38;81.53;102306.94;4183565;28;20061;-68
2021/04/16 05:16:44;;;;;;;10.25;5.47;;;3.80;99.90;;;3.58;81.37;102322.53;4168234;28;20048;-68
2021/04/16 05:18:48;;;;;;;7.15;4.40;;;3.90;99.90;;;3.53;81.14;102321.88;4167084;28;20045;-68
2021/04/16 05:20:49;;;;;;;10.43;4.80;;;3.90;99.90;;;3.40;81.63;102290.34;4167164;28;20083;-68
2021/04/16 05:22:50;;;;;;;9.23;4.95;;;4.00;99.90;;;3.42;81.70;102319.78;4167727;28;20045;-68
2021/04/16 05:24:50;;;;;;;7.05;4.28;;;3.90;99.90;;;3.54;82.04;102328.81;4170061;28;20029;-67
2021/04/16 05:26:51;;;;;;;9.93;4.63;;;3.90;99.90;;;3.41;82.32;102331.13;4170282;28;20037;-68
2021/04/16 05:28:52;;;;;;;8.73;4.45;;;3.90;99.90;;;3.50;82.09;102327.25;4170251;28;20075;-68
2021/04/16 05:30:53;;;;;;;7.85;4.15;;;3.90;99.90;;;3.56;81.63;102335.63;4153803;28;20037;-68
2021/04/16 05:32:54;;;;;;;7.65;4.80;;;3.90;99.90;;;3.39;82.14;102319.94;4174281;28;20617;-69
2021/04/16 05:34:55;;;;;;;9.80;4.78;;;3.90;99.90;;;3.56;81.94;102340.00;4169420;28;20113;-67
2021/04/16 05:36:56;;;;;;;8.88;4.45;;;3.90;99.90;;;3.55;81.80;102341.78;4178432;28;20026;-68
2021/04/16 05:38:57;;;;;;;14.25;6.20;;;3.90;99.90;;;3.64;81.94;102348.34;4168870;28;20075;-68
2021/04/16 05:40:58;;;;;;;12.82;6.22;;;3.90;99.90;;;3.51;81.79;102331.56;4170978;28;20055;-68
2021/04/16 05:42:59;;;;;;;11.48;5.15;;;4.00;99.90;;;3.61;81.66;102343.25;4170029;28;20036;-68
2021/04/16 05:45:00;;;;;;;7.55;4.78;;;4.00;99.90;;;3.44;82.18;102327.53;4153504;28;20033;-68
2021/04/16 05:47:02;;;;;;;8.57;4.78;;;4.00;99.90;;;3.60;81.70;102344.16;4169664;28;20121;-68
2021/04/16 05:49:04;;;;;;;8.07;4.80;;;4.00;99.90;;;3.59;81.39;102347.69;4169863;28;20030;-68
2021/04/16 05:51:07;;;;;;;6.65;4.75;;;4.00;99.90;;;3.63;81.89;102342.28;4170032;28;20033;-68
2021/04/16 05:53:08;;;;;;;9.77;5.13;;;4.10;99.90;;;3.67;81.16;102330.78;4153528;28;20022;-68
2021/04/16 05:55:10;;;;;;;8.95;4.93;;;4.10;99.90;;;3.63;82.04;102349.25;4169538;28;20038;-68
2021/04/16 05:57:11;;;;;;;6.95;4.78;;;4.10;99.90;;;3.72;81.68;102362.72;4170754;28;20029;-68
2021/04/16 05:59:12;;;;;;;5.72;4.90;;;4.10;99.90;;;3.75;81.78;102351.28;4169924;28;20029;-68
2021/04/16 06:01:13;;;;;;;10.63;4.57;;;4.10;99.90;;;3.78;81.24;102364.19;4162918;28;20029;-68
2021/04/16 06:03:18;;;;;;;12.10;5.72;;;4.20;99.90;;;3.70;81.58;102350.66;4180051;28;20087;-68
2021/04/16 06:05:20;;;;;;;14.85;6.07;;;4.20;99.90;;;3.53;83.09;102353.19;4147167;28;20572;-68
2021/04/16 06:07:23;;;;;;;9.38;4.50;;;4.20;99.90;;;3.74;82.09;102352.19;4166615;28;20034;-68
2021/04/16 06:09:24;;;;;;;9.43;4.65;;;4.20;99.90;;;3.87;81.39;102364.59;4167389;28;20057;-68
2021/04/16 06:11:25;;;;;;;10.50;5.15;;;4.20;99.90;;;3.92;80.36;102357.38;4168820;28;20021;-68
2021/04/16 06:13:28;;;;;;;9.63;4.90;;;4.30;99.90;;;4.10;80.34;102362.63;4171445;28;20109;-68
2021/04/16 06:15:29;;;;;;;7.22;4.93;;;4.30;99.90;;;4.04;80.04;102362.91;4156755;28;20025;-68
2021/04/16 06:17:30;;;;;;;9.40;4.65;;;4.40;99.90;;;4.03;80.71;102364.72;4159992;28;20026;-68
2021/04/16 06:19:31;;;;;;;8.18;5.88;;;4.50;99.90;;;4.16;80.06;102370.16;4163931;28;20056;-68
2021/04/16 06:21:33;;;;;;;7.72;5.00;;;4.60;99.90;;;3.96;79.91;102352.84;4168243;28;20028;-67
2021/04/16 06:23:34;;;;;;;8.25;4.75;;;4.60;99.90;;;4.13;80.52;102365.94;4168767;28;20025;-67
2021/04/16 06:25:35;;;;;;;7.95;4.85;;;4.60;99.90;;;4.22;79.84;102373.31;4159348;28;20032;-67
2021/04/16 06:27:37;;;;;;;7.13;4.82;;;4.70;99.90;;;4.17;80.61;102379.69;4168413;28;20022;-67
2021/04/16 06:29:38;;;;;;;7.35;5.45;;;4.70;99.90;;;4.12;80.44;102373.84;4167199;28;20041;-67
2021/04/16 06:31:39;;;;;;;10.35;5.18;;;4.70;99.90;;;4.15;80.96;102363.25;4169726;28;20025;-67
2021/04/16 06:33:39;;;;;;;9.80;5.68;;;4.70;99.90;;;4.26;80.68;102390.53;4168570;28;20132;-67
2021/04/16 06:35:52;;;;;;;11.43;5.45;;;4.80;99.90;;;4.20;80.71;102388.22;4179348;28;20021;-67
2021/04/16 06:37:53;;;;;;;12.30;6.15;;;4.80;99.90;;;4.41;80.03;102387.16;4167195;28;20036;-67
2021/04/16 06:39:54;;;;;;;10.07;5.47;;;4.80;99.90;;;4.40;79.58;102380.25;4169804;28;20057;-67
2021/04/16 06:41:55;;;;;;;8.65;5.32;;;4.90;99.90;;;4.36;79.67;102378.69;4168467;28;20763;-67
2021/04/16 06:44:04;;;;;;;10.32;5.95;;;5.00;99.90;;;4.39;81.07;102383.78;4185185;28;20056;-68
2021/04/16 06:46:16;;;;;;;8.63;6.20;;;4.90;99.90;;;4.52;80.06;102389.22;4168327;28;20035;-68
2021/04/16 06:48:19;;;;;;;10.93;5.93;;;5.00;99.90;;;4.56;79.85;102389.94;4168497;28;20112;-67
2021/04/16 06:50:23;;;;;;;9.85;6.35;;;5.10;99.90;;;4.40;80.02;102384.63;4168628;28;20029;-68
2021/04/16 06:52:40;;;;;;;11.85;6.38;;;5.10;99.90;;;4.42;79.65;102388.03;4169719;28;20033;-67
2021/04/16 06:55:26;;;;;;;10.50;6.40;;;5.20;99.90;;;4.39;80.56;102389.00;4167220;28;20100;-67
2021/04/16 06:57:57;;;;;;;8.32;5.65;;;5.20;99.90;;;4.50;80.04;102398.94;4168734;28;20523;-67
2021/04/16 07:00:52;;;;;;;12.07;6.45;;;5.20;99.90;;;4.65;79.20;102399.91;4169849;28;20028;-67
2021/04/16 07:03:24;;;;;;;10.52;6.03;;;5.30;99.90;;;4.66;80.37;102404.25;4160636;28;20033;-68
2021/04/16 07:05:37;;;;;;;9.15;6.35;;;5.30;99.90;;;4.80;79.58;102394.78;4168840;28;20037;-67
2021/04/16 07:07:45;;;;;;;9.18;6.47;;;5.30;99.90;;;4.88;79.72;102407.44;4168077;28;20565;-67
2021/04/16 07:09:57;;;;;;;12.00;6.32;;;5.30;99.90;;;4.82;79.54;102402.50;4152122;28;20519;-67
2021/04/16 07:12:21;;;;;;;10.68;7.28;;;5.40;99.90;;;4.89;79.17;102398.69;4169353;28;20021;-67
2021/04/16 07:14:45;;;;;;;13.57;7.63;;;5.50;99.90;;;4.93;78.72;102402.78;4168443;28;20374;-68
2021/04/16 07:16:46;;;;;;;13.23;6.53;;;5.60;99.90;;;5.00;79.22;102391.09;4169056;28;20052;-67
2021/04/16 07:18:58;;;;;;;10.65;7.00;;;5.70;99.90;;;4.98;78.36;102387.75;4168131;28;20029;-67
2021/04/16 07:21:00;;;;;;;16.48;6.93;;;5.80;99.90;;;4.98;78.82;102392.97;4168373;28;20036;-67
2021/04/16 07:23:01;;;;;;;13.55;8.07;;;5.90;99.90;;;4.96;79.25;102374.72;4168073;28;20055;-67
2021/04/16 07:25:42;;;;;;;11.07;7.13;;;5.90;99.90;;;5.19;78.39;102396.22;4167598;28;20062;-67
2021/04/16 07:27:48;;;;;;;12.48;8.15;;;5.90;99.90;;;5.26;78.29;102387.97;4172492;28;20041;-67
2021/04/16 07:29:57;;;;;;;13.98;7.97;;;6.00;99.90;;;5.20;78.11;102387.44;4167992;28;20060;-67
2021/04/16 07:31:58;;;;;;;14.88;8.57;;;6.00;99.90;;;5.30;78.02;102393.88;4168126;28;20029;-67
2021/04/16 07:34:02;;;;;;;13.45;7.95;;;6.10;99.90;;;5.36;77.07;102383.94;4167318;28;20042;-67
2021/04/16 07:36:21;;;;;;;13.90;8.80;;;6.20;99.90;;;5.44;77.70;102389.59;4167728;28;20447;-67
2021/04/16 07:38:33;;;;;;;13.00;8.48;;;6.30;99.90;;;5.57;77.25;102388.00;4169183;28;20025;-67
2021/04/16 07:40:42;;;;;;;12.73;7.97;;;6.30;99.90;;;5.35;76.24;102366.53;4151463;28;20041;-67
2021/04/16 07:42:47;;;;;;;12.02;8.10;;;6.40;99.90;;;5.75;77.24;102393.16;4167409;28;20160;-67
2021/04/16 07:45:15;;;;;;;11.38;8.45;;;6.50;99.90;;;5.93;76.19;102405.25;4168948;28;20044;-67
2021/04/16 07:47:25;;;;;;;12.35;9.20;;;6.60;99.90;;;5.76;74.96;102393.09;4167610;28;20031;-68
2021/04/16 07:49:32;;;;;;;15.88;8.57;;;6.60;99.90;;;5.92;74.96;102411.41;4167754;28;20091;-67
2021/04/16 07:51:33;;;;;;;13.93;8.77;;;6.80;99.90;;;5.93;74.87;102397.41;4168944;28;20025;-67
2021/04/16 07:53:44;;;;;;;12.55;8.32;;;6.90;99.90;;;6.10;73.89;102387.66;4167526;28;20512;-67
2021/04/16 07:55:44;;;;;;;13.98;8.88;;;6.90;99.90;;;6.24;73.91;102391.28;4167037;28;20052;-68
2021/04/16 07:57:51;;;;;;;14.05;9.25;;;7.00;99.90;;;6.07;73.54;102397.47;4167355;28;20026;-68
2021/04/16 08:00:00;;;;;;;12.93;8.40;;;7.00;99.90;;;6.22;74.13;102393.97;4168839;28;20397;-67
2021/04/16 08:02:22;;;;;;;15.35;8.07;;;7.10;99.90;;;6.40;73.61;102381.59;4155449;28;20083;-67
2021/04/16 08:04:35;;;;;;;13.15;8.55;;;7.20;99.90;;;6.62;71.12;102382.88;4167492;28;20060;-67
2021/04/16 08:06:44;;;;;;;11.60;8.48;;;7.30;99.90;;;6.47;70.93;102399.50;4166926;28;20064;-68
2021/04/16 08:08:46;;;;;;;12.77;8.57;;;7.40;99.90;;;6.56;71.07;102390.25;4165935;28;20021;-68
2021/04/16 08:11:03;;;;;;;14.45;9.38;;;7.50;99.90;;;6.69;72.49;102392.06;4165968;28;20037;-68
2021/04/16 08:13:13;;;;;;;11.50;8.05;;;7.50;99.90;;;6.73;70.50;102397.13;4164571;28;20099;-68
2021/04/16 08:15:27;;;;;;;11.93;8.05;;;7.60;99.90;;;6.85;71.07;102391.13;4164407;28;20033;-69
2021/04/16 08:17:30;;;;;;;14.93;8.80;;;7.60;99.90;;;6.80;68.79;102390.59;4158504;28;20435;-69
2021/04/16 08:19:38;;;;;;;12.20;8.32;;;7.70;99.90;;;6.92;68.71;102392.47;4166626;28;20060;-68
2021/04/16 08:21:47;;;;;;;10.55;7.80;;;7.80;99.90;;;6.79;69.00;102391.50;4198897;28;20415;-68
2021/04/16 08:24:02;;;;;;;13.45;8.23;;;7.80;99.90;;;7.03;68.22;102403.16;4167067;28;20108;-68
2021/04/16 08:26:09;;;;;;;14.75;8.65;;;7.90;99.90;;;6.98;67.80;102392.94;4167631;28;20034;-68
2021/04/16 08:28:57;;;;;;;13.73;8.05;;;7.90;99.90;;;7.30;69.27;102388.34;4167817;28;20091;-68
2021/04/16 08:31:13;;;;;;;12.52;7.63;;;8.10;99.90;;;7.34;68.07;102362.75;4136485;28;20043;-68
2021/04/16 08:33:43;;;;;;;14.32;8.70;;;8.20;99.90;;;7.61;67.08;102396.00;4166717;28;20524;-68
2021/04/16 08:36:11;;;;;;;12.18;8.35;;;8.40;99.90;;;7.64;67.57;102387.94;4149353;28;20125;-68
2021/04/16 08:38:18;;;;;;;12.23;7.68;;;8.50;99.90;;;7.49;66.91;102383.66;4166720;28;20033;-69
2021/04/16 08:40:35;;;;;;;13.23;7.57;;;8.50;99.90;;;7.56;66.86;102384.94;4166657;28;20033;-68
2021/04/16 08:42:37;;;;;;;11.40;8.02;;;8.50;99.90;;;7.51;66.39;102376.50;4166753;28;20056;-68
2021/04/16 08:45:11;;;;;;;8.63;7.45;;;8.60;99.90;;;7.80;67.05;102382.53;4167148;28;20032;-68
2021/04/16 08:47:30;;;;;;;9.73;7.47;;;8.70;99.90;;;7.67;66.58;102382.50;4163533;28;20073;-68
2021/04/16 08:49:35;;;;;;;13.30;7.88;;;8.80;99.90;;;8.03;66.89;102383.69;4167397;28;20180;-68
2021/04/16 08:51:37;;;;;;;;;;;8.90;99.90;;;8.02;65.60;102382.00;4167693;28;20431;-68